Time;durP1;ratioP1;P1;durP2;ratioP2;P2;SDS_P1;SDS_P2;PMS_P1;PMS_P2;Temp;Humidity;BMP_temperature;BMP_pressure;BME280_temperature;BME280_humidity;BME280_pressure;Samples;Min_cycle;Max_cycle;Signal;HPM_P1;HPM_P2
2021/06/10 00:00:53;;;;;;;14.57;13.37;;;;;;;14.31;100.00;98440.72;5085343;28;20233;-71
2021/06/10 00:03:20;;;;;;;14.40;13.20;;;;;;;14.43;100.00;98435.81;5084497;28;20214;-71
2021/06/10 00:05:48;;;;;;;14.33;13.27;;;;;;;14.30;100.00;98441.72;5081335;28;20229;-70
2021/06/10 00:08:16;;;;;;;14.20;13.00;;;;;;;14.26;100.00;98447.63;5081831;28;20694;-70
2021/06/10 00:10:45;;;;;;;14.33;12.87;;;;;;;14.20;100.00;98441.13;5081761;28;20297;-71
2021/06/10 00:13:14;;;;;;;14.70;13.50;;;;;;;14.24;100.00;98442.44;5084239;28;20237;-69
2021/06/10 00:15:42;;;;;;;15.50;14.20;;;;;;;14.15;100.00;98443.50;5083477;28;20222;-70
2021/06/10 00:18:10;;;;;;;14.50;13.43;;;;;;;14.17;100.00;98446.81;5084189;28;20588;-69
2021/06/10 00:20:39;;;;;;;13.80;12.80;;;;;;;14.18;100.00;98448.47;5083605;28;20207;-72
2021/06/10 00:23:07;;;;;;;16.03;14.73;;;;;;;14.23;100.00;98447.97;5084461;28;20214;-71
2021/06/10 00:25:35;;;;;;;14.47;13.37;;;;;;;14.18;100.00;98443.97;5083915;28;20425;-71
2021/06/10 00:28:04;;;;;;;15.10;13.90;;;;;;;14.10;100.00;98448.53;5081066;28;20199;-69
2021/06/10 00:30:33;;;;;;;14.70;13.50;;;;;;;14.13;100.00;98438.34;5073898;28;20203;-71
2021/06/10 00:33:01;;;;;;;15.47;14.17;;;;;;;14.06;100.00;98449.91;5076416;28;20213;-71
2021/06/10 00:35:30;;;;;;;15.03;13.83;;;;;;;13.99;100.00;98449.75;5083620;28;20234;-70
2021/06/10 00:37:59;;;;;;;13.90;12.83;;;;;;;13.92;100.00;98448.81;5082730;28;20214;-68
2021/06/10 00:40:27;;;;;;;14.17;13.10;;;;;;;13.89;100.00;98445.47;5082571;28;20210;-74
2021/06/10 00:42:55;;;;;;;14.90;13.70;;;;;;;13.89;100.00;98445.47;5082879;28;20213;-70
2021/06/10 00:45:25;;;;;;;15.67;14.20;;;;;;;13.84;100.00;98455.00;5081995;28;20252;-71
2021/06/10 00:47:53;;;;;;;14.63;13.53;;;;;;;13.86;100.00;98445.00;5081835;28;20210;-69
2021/06/10 00:50:23;;;;;;;14.73;13.23;;;;;;;13.81;100.00;98461.47;5082663;28;20210;-70
2021/06/10 00:52:51;;;;;;;13.97;12.37;;;;;;;13.88;100.00;98453.63;5083187;28;20210;-70
2021/06/10 00:55:18;;;;;;;14.97;13.83;;;;;;;13.80;100.00;98454.50;5082143;28;20229;-70
2021/06/10 00:57:46;;;;;;;15.27;13.87;;;;;;;13.78;100.00;98455.69;5081332;28;20209;-71
2021/06/10 01:00:16;;;;;;;15.77;14.47;;;;;;;13.69;100.00;98450.41;5076736;28;20206;-69
2021/06/10 01:02:45;;;;;;;15.37;14.10;;;;;;;13.76;100.00;98455.84;5079622;28;20210;-73
2021/06/10 01:05:13;;;;;;;14.97;13.60;;;;;;;13.77;100.00;98449.53;5079130;28;20229;-70
2021/06/10 01:07:50;;;;;;;15.03;13.93;;;;;;;13.82;100.00;98451.66;5081721;28;20206;-71
2021/06/10 01:10:25;;;;;;;14.50;13.40;;;;;;;13.71;100.00;98447.56;5081018;28;20209;-71
2021/06/10 01:12:57;;;;;;;14.47;13.07;;;;;;;13.71;100.00;98448.41;5076155;28;20497;-72
2021/06/10 01:15:26;;;;;;;14.33;13.23;;;;;;;13.52;100.00;98446.97;5082006;28;20238;-70
2021/06/10 01:17:55;;;;;;;14.37;13.27;;;;;;;13.53;100.00;98451.28;5082444;28;20202;-70
2021/06/10 01:20:26;;;;;;;12.83;11.77;;;;;;;13.55;100.00;98456.44;5081760;28;20209;-71
2021/06/10 01:23:03;;;;;;;13.80;12.70;;;;;;;13.50;100.00;98456.97;5081918;28;20693;-69
2021/06/10 01:25:46;;;;;;;14.37;13.20;;;;;;;13.46;100.00;98467.13;5082617;28;20226;-70
2021/06/10 01:28:18;;;;;;;14.30;13.20;;;;;;;13.47;100.00;98462.63;5080457;28;20776;-73
2021/06/10 01:30:50;;;;;;;15.17;13.97;;;;;;;13.32;100.00;98457.97;5081044;28;20195;-70
2021/06/10 01:33:20;;;;;;;14.13;13.03;;;;;;;13.31;100.00;98455.50;5079940;28;20202;-71
2021/06/10 01:35:52;;;;;;;15.30;13.97;;;;;;;13.31;100.00;98458.16;5080699;28;20221;-73
2021/06/10 01:38:20;;;;;;;14.33;13.27;;;;;;;13.36;100.00;98458.47;5078694;28;20205;-73
2021/06/10 01:40:49;;;;;;;13.50;12.47;;;;;;;13.44;100.00;98460.28;5082346;28;20202;-68
2021/06/10 01:43:19;;;;;;;14.40;13.30;;;;;;;13.45;100.00;98452.16;5081311;28;20471;-74
2021/06/10 01:45:49;;;;;;;15.07;13.77;;;;;;;13.63;100.00;98456.41;5078077;28;20466;-68
2021/06/10 01:48:18;;;;;;;14.47;13.27;;;;;;;13.70;100.00;98451.22;5078971;28;20202;-69
2021/06/10 01:50:48;;;;;;;14.23;13.00;;;;;;;13.61;100.00;98461.06;5075904;28;20666;-72
2021/06/10 01:53:16;;;;;;;14.47;13.17;;;;;;;13.55;100.00;98459.94;5079137;28;20724;-72
2021/06/10 01:55:44;;;;;;;14.20;13.10;;;;;;;13.58;100.00;98458.75;5081399;28;20233;-70
2021/06/10 01:58:13;;;;;;;14.83;13.73;;;;;;;13.70;100.00;98459.22;5081679;28;20222;-74
2021/06/10 02:00:43;;;;;;;13.90;12.90;;;;;;;13.77;100.00;98465.50;5081108;28;20202;-70
2021/06/10 02:03:11;;;;;;;14.23;13.00;;;;;;;13.71;100.00;98458.22;5080953;28;20199;-70
2021/06/10 02:05:40;;;;;;;12.63;11.73;;;;;;;14.01;100.00;98450.41;5079711;28;20278;-72
2021/06/10 02:08:09;;;;;;;13.43;12.40;;;;;;;13.98;100.00;98448.91;5081593;28;20229;-69
2021/06/10 02:10:37;;;;;;;13.03;11.93;;;;;;;13.94;100.00;98449.47;5080945;28;20587;-72
2021/06/10 02:13:05;;;;;;;14.63;13.63;;;;;;;13.94;100.00;98446.78;5081843;28;20681;-71
2021/06/10 02:15:33;;;;;;;13.63;12.53;;;;;;;14.04;100.00;98440.25;5074095;28;20233;-71
2021/06/10 02:18:03;;;;;;;12.57;11.57;;;;;;;14.06;100.00;98442.72;5080015;28;20886;-70
2021/06/10 02:20:30;;;;;;;13.47;12.47;;;;;;;14.06;100.00;98445.38;5081540;28;20210;-70
2021/06/10 02:22:58;;;;;;;13.37;12.27;;;;;;;14.04;100.00;98448.25;5081846;28;20459;-73
2021/06/10 02:25:26;;;;;;;12.57;11.67;;;;;;;14.10;100.00;98443.22;5079718;28;20545;-69
2021/06/10 02:27:53;;;;;;;12.70;11.70;;;;;;;14.25;100.00;98444.09;5079626;28;20198;-74
2021/06/10 02:30:21;;;;;;;13.43;12.37;;;;;;;14.17;100.00;98444.16;5079726;28;20202;-71
2021/06/10 02:32:49;;;;;;;14.40;12.90;;;;;;;14.19;100.00;98444.81;5081406;28;20703;-68
2021/06/10 02:35:18;;;;;;;15.30;13.77;;;;;;;14.03;100.00;98443.06;5080694;28;20222;-73
2021/06/10 02:37:47;;;;;;;13.77;12.60;;;;;;;14.13;100.00;98446.34;5076156;28;20217;-71
2021/06/10 02:40:18;;;;;;;14.43;13.13;;;;;;;14.09;100.00;98445.03;5076584;28;20310;-70
2021/06/10 02:42:48;;;;;;;15.20;13.90;;;;;;;14.17;100.00;98449.50;5075294;28;20194;-70
2021/06/10 02:45:16;;;;;;;16.60;15.00;;;;;;;14.17;100.00;98441.50;5074803;28;20305;-72
2021/06/10 02:47:45;;;;;;;18.43;15.73;;;;;;;14.20;100.00;98438.47;5074613;28;20203;-69
2021/06/10 02:50:16;;;;;;;20.33;16.50;;;;;;;14.04;100.00;98436.72;5080268;28;20681;-68
2021/06/10 02:52:47;;;;;;;18.73;16.93;;;;;;;14.05;100.00;98438.41;5082202;28;20197;-69
2021/06/10 02:55:16;;;;;;;21.07;17.27;;;;;;;14.24;100.00;98442.44;5082090;28;20233;-71
2021/06/10 02:57:45;;;;;;;19.70;17.67;;;;;;;14.26;100.00;98439.63;5083836;28;20666;-72
2021/06/10 03:00:14;;;;;;;19.33;17.33;;;;;;;14.16;100.00;98435.31;5083287;28;20574;-67
2021/06/10 03:02:42;;;;;;;20.50;18.37;;;;;;;14.28;100.00;98440.25;5084901;28;20203;-69
2021/06/10 03:05:12;;;;;;;20.30;18.17;;;;;;;14.39;100.00;98428.34;5084397;28;20218;-70
2021/06/10 03:07:39;;;;;;;19.47;17.37;;;;;;;14.36;100.00;98439.34;5084334;28;20214;-67
2021/06/10 03:10:10;;;;;;;20.87;18.63;;;;;;;14.21;100.00;98434.81;5084142;28;20216;-70
2021/06/10 03:12:39;;;;;;;21.87;19.07;;;;;;;14.22;100.00;98435.66;5084201;28;20213;-70
2021/06/10 03:15:08;;;;;;;21.90;18.93;;;;;;;14.19;100.00;98429.63;5085806;28;20230;-69
2021/06/10 03:17:36;;;;;;;22.50;18.50;;;;;;;14.15;100.00;98428.34;5084976;28;20547;-70
2021/06/10 03:20:04;;;;;;;20.43;18.47;;;;;;;14.31;100.00;98431.91;5084844;28;20206;-69
2021/06/10 03:22:32;;;;;;;20.23;18.07;;;;;;;14.32;100.00;98433.56;5086034;28;20217;-70
2021/06/10 03:25:00;;;;;;;22.63;18.47;;;;;;;14.32;100.00;98433.56;5081666;28;20256;-69
2021/06/10 03:27:31;;;;;;;23.30;18.30;;;;;;;14.21;100.00;98434.00;5083043;28;20233;-70
2021/06/10 03:29:58;;;;;;;21.33;19.20;;;;;;;14.33;100.00;98428.03;5085048;28;20202;-71
2021/06/10 03:32:27;;;;;;;25.33;19.27;;;;;;;14.23;100.00;98423.97;5085533;28;20206;-69
2021/06/10 03:34:55;;;;;;;21.83;19.53;;;;;;;14.32;100.00;98425.56;5083987;28;20222;-71
2021/06/10 03:37:23;;;;;;;22.07;19.87;;;;;;;14.38;100.00;98418.69;5085939;28;20219;-70
2021/06/10 03:39:51;;;;;;;28.30;19.37;;;;;;;14.35;100.00;98421.72;5083811;28;20209;-68
2021/06/10 03:42:19;;;;;;;31.30;21.57;;;;;;;14.48;100.00;98422.78;5082965;28;20589;-69
2021/06/10 03:44:49;;;;;;;23.20;19.10;;;;;;;14.46;100.00;98424.78;5084594;28;20210;-68
2021/06/10 03:47:17;;;;;;;26.70;21.30;;;;;;;14.52;100.00;98425.06;5081914;28;20209;-69
2021/06/10 03:49:45;;;;;;;24.97;21.90;;;;;;;14.39;100.00;98417.66;5081068;28;20727;-69
2021/06/10 03:52:12;;;;;;;32.27;21.73;;;;;;;14.56;100.00;98429.03;5082581;28;20215;-68
2021/06/10 03:54:40;;;;;;;40.70;21.57;;;;;;;14.37;100.00;98427.69;5083869;28;20291;-69
2021/06/10 03:57:08;;;;;;;38.60;22.43;;;;;;;14.36;100.00;98434.03;5083730;28;20225;-68
2021/06/10 03:59:36;;;;;;;40.10;22.93;;;;;;;14.30;100.00;98431.06;5083519;28;20202;-72
2021/06/10 04:02:05;;;;;;;29.97;22.53;;;;;;;14.37;100.00;98425.88;5082029;28;20600;-72
2021/06/10 04:04:33;;;;;;;34.73;20.50;;;;;;;14.23;100.00;98431.97;5083814;28;20670;-72
2021/06/10 04:07:00;;;;;;;30.97;20.57;;;;;;;14.31;100.00;98431.91;5080086;28;20225;-72
2021/06/10 04:09:28;;;;;;;36.67;20.53;;;;;;;14.32;100.00;98430.91;5081015;28;20701;-72
2021/06/10 04:11:55;;;;;;;22.87;19.73;;;;;;;14.44;100.00;98426.81;5083225;28;20206;-72
2021/06/10 04:14:23;;;;;;;27.17;20.30;;;;;;;14.42;100.00;98426.16;5082401;28;20609;-72
2021/06/10 04:16:50;;;;;;;55.27;22.50;;;;;;;14.48;100.00;98430.78;5082367;28;20229;-71
2021/06/10 04:19:19;;;;;;;28.77;21.47;;;;;;;14.55;100.00;98430.91;5079178;28;20206;-72
2021/06/10 04:21:47;;;;;;;31.43;20.00;;;;;;;14.70;100.00;98425.63;5081824;28;20198;-72
2021/06/10 04:24:15;;;;;;;23.87;20.67;;;;;;;14.77;100.00;98433.72;5080841;28;20209;-73
2021/06/10 04:26:42;;;;;;;20.67;18.90;;;;;;;14.75;100.00;98428.59;5082115;28;20222;-72
2021/06/10 04:29:10;;;;;;;29.93;18.90;;;;;;;14.75;100.00;98427.75;5080216;28;20251;-72
2021/06/10 04:31:37;;;;;;;25.77;20.37;;;;;;;14.70;100.00;98430.09;5079033;28;20221;-72
2021/06/10 04:34:05;;;;;;;22.33;18.87;;;;;;;14.75;100.00;98430.41;5080169;28;20209;-71
2021/06/10 04:36:33;;;;;;;23.03;20.47;;;;;;;14.82;100.00;98430.53;5081792;28;20258;-72
2021/06/10 04:39:01;;;;;;;21.80;19.83;;;;;;;14.87;100.00;98433.47;5082896;28;20209;-72
2021/06/10 04:41:28;;;;;;;21.53;19.70;;;;;;;14.99;100.00;98429.38;5083329;28;20717;-73
2021/06/10 04:43:56;;;;;;;22.53;20.23;;;;;;;14.98;100.00;98430.41;5082258;28;20632;-72
2021/06/10 04:46:23;;;;;;;28.47;19.73;;;;;;;15.12;100.00;98428.72;5079636;28;20230;-71
2021/06/10 04:48:51;;;;;;;22.47;20.27;;;;;;;15.20;100.00;98435.84;5076454;28;20214;-71
2021/06/10 04:51:18;;;;;;;21.00;19.00;;;;;;;15.15;100.00;98444.41;5079638;28;20820;-72
2021/06/10 04:53:47;;;;;;;19.23;17.50;;;;;;;15.11;100.00;98432.41;5082856;28;20206;-71
2021/06/10 04:56:17;;;;;;;22.40;19.67;;;;;;;15.01;100.00;98446.03;5082900;28;20236;-70
2021/06/10 04:58:45;;;;;;;19.40;17.70;;;;;;;14.95;100.00;98432.59;5083058;28;20202;-70
2021/06/10 05:01:12;;;;;;;31.10;18.23;;;;;;;14.69;100.00;98439.13;5083735;28;20202;-71
2021/06/10 05:03:40;;;;;;;22.93;17.97;;;;;;;14.76;100.00;98437.41;5081870;28;20206;-72
2021/06/10 05:06:07;;;;;;;19.83;18.03;;;;;;;14.84;100.00;98436.50;5082201;28;20245;-71
2021/06/10 05:08:35;;;;;;;19.97;18.17;;;;;;;15.00;100.00;98444.38;5081952;28;20214;-70
2021/06/10 05:11:04;;;;;;;21.37;17.57;;;;;;;14.81;100.00;98448.41;5082441;28;20360;-70
2021/06/10 05:13:36;;;;;;;24.13;18.20;;;;;;;14.80;100.00;98451.22;5082794;28;20761;-73
2021/06/10 05:16:04;;;;;;;20.10;18.20;;;;;;;14.77;100.00;98441.72;5077171;28;20233;-69
2021/06/10 05:18:32;;;;;;;20.90;18.90;;;;;;;15.23;100.00;98448.81;5083460;28;20202;-71
2021/06/10 05:21:00;;;;;;;22.53;19.10;;;;;;;15.43;100.00;98454.44;5082106;28;20210;-69
2021/06/10 05:23:27;;;;;;;20.50;18.43;;;;;;;15.60;100.00;98447.06;5078415;28;20210;-69
2021/06/10 05:25:55;;;;;;;21.23;19.43;;;;;;;15.71;100.00;98447.59;5082271;28;20619;-74
2021/06/10 05:28:23;;;;;;;20.97;18.90;;;;;;;15.62;100.00;98444.22;5079669;28;20198;-70
2021/06/10 05:30:51;;;;;;;21.90;19.60;;;;;;;15.81;100.00;98444.66;5076608;28;20209;-73
2021/06/10 05:33:18;;;;;;;21.07;19.37;;;;;;;15.90;100.00;98448.91;5081542;28;20236;-72
2021/06/10 05:35:46;;;;;;;21.57;19.77;;;;;;;15.95;100.00;98443.84;5079775;28;20644;-72
2021/06/10 05:38:13;;;;;;;20.87;19.13;;;;;;;15.79;100.00;98455.53;5072887;28;20416;-70
2021/06/10 05:40:40;;;;;;;20.53;18.47;;;;;;;16.14;100.00;98449.59;5081056;28;20694;-70
2021/06/10 05:43:09;;;;;;;21.40;19.57;;;;;;;16.15;100.00;98444.06;5072773;28;20241;-74
2021/06/10 05:45:38;;;;;;;20.30;18.60;;;;;;;16.04;100.00;98447.22;5079615;28;20233;-72
2021/06/10 05:48:07;;;;;;;19.53;17.73;;;;;;;16.21;100.00;98437.13;5079948;28;20301;-71
2021/06/10 05:50:34;;;;;;;20.90;19.13;;;;;;;16.24;100.00;98441.28;5081812;28;20202;-72
2021/06/10 05:53:02;;;;;;;21.13;19.27;;;;;;;16.20;100.00;98446.16;5082756;28;20229;-72
2021/06/10 05:55:29;;;;;;;19.47;17.87;;;;;;;16.41;100.00;98439.19;5082387;28;20222;-70
2021/06/10 05:57:57;;;;;;;20.03;18.40;;;;;;;16.39;100.00;98450.06;5079974;28;20206;-72
2021/06/10 06:00:24;;;;;;;18.50;17.00;;;;;;;16.78;100.00;98447.94;5081528;28;20213;-71
2021/06/10 06:02:53;;;;;;;19.23;17.37;;;;;;;16.72;100.00;98449.53;5079071;28;20202;-70
2021/06/10 06:05:20;;;;;;;18.93;17.30;;;;;;;16.86;100.00;98455.03;5081097;28;20222;-70
2021/06/10 06:07:49;;;;;;;19.43;17.53;;;;;;;16.75;100.00;98451.81;5081388;28;20681;-72
2021/06/10 06:10:19;;;;;;;19.43;17.53;;;;;;;16.74;100.00;98447.50;5080378;28;20206;-70
2021/06/10 06:12:49;;;;;;;18.57;17.07;;;;;;;16.85;100.00;98456.84;5080591;28;20202;-73
2021/06/10 06:15:17;;;;;;;18.77;17.13;;;;;;;16.90;100.00;98462.47;5080750;28;20847;-72
2021/06/10 06:17:46;;;;;;;19.47;17.77;;;;;;;16.93;100.00;98462.06;5081114;28;20519;-70
2021/06/10 06:20:15;;;;;;;20.17;18.37;;;;;;;16.86;100.00;98463.88;5078878;28;20844;-70
2021/06/10 06:22:45;;;;;;;19.10;17.40;;;;;;;17.05;100.00;98466.94;5076392;28;20202;-71
2021/06/10 06:25:14;;;;;;;19.40;17.67;;;;;;;17.10;100.00;98466.34;5078413;28;20248;-70
2021/06/10 06:27:42;;;;;;;19.37;17.70;;;;;;;17.10;100.00;98471.69;5078216;28;20670;-71
2021/06/10 06:30:11;;;;;;;18.03;16.63;;;;;;;16.61;100.00;98474.16;5078286;28;20202;-70
2021/06/10 06:32:39;;;;;;;19.17;17.47;;;;;;;16.53;100.00;98469.75;5082656;28;20198;-72
2021/06/10 06:35:08;;;;;;;20.90;19.00;;;;;;;16.74;100.00;98473.44;5080351;28;20245;-71
2021/06/10 06:37:37;;;;;;;21.90;20.00;;;;;;;16.99;100.00;98476.56;5081057;28;20238;-71
2021/06/10 06:40:06;;;;;;;22.80;20.60;;;;;;;16.87;100.00;98476.22;5078204;28;20640;-70
2021/06/10 06:42:33;;;;;;;21.60;19.73;;;;;;;16.75;100.00;98485.81;5078914;28;20202;-71
2021/06/10 06:45:01;;;;;;;21.47;19.67;;;;;;;16.76;100.00;98482.09;5080551;28;20208;-71
2021/06/10 06:47:29;;;;;;;21.23;19.33;;;;;;;16.82;100.00;98485.84;5079690;28;20228;-71
2021/06/10 06:49:57;;;;;;;19.57;17.97;;;;;;;16.92;100.00;98486.38;5081363;28;20206;-76
2021/06/10 06:52:24;;;;;;;21.63;19.87;;;;;;;16.90;100.00;98483.88;5078692;28;20256;-71
2021/06/10 06:54:53;;;;;;;22.20;20.30;;;;;;;16.86;100.00;98489.81;5080796;28;20202;-74
2021/06/10 06:57:21;;;;;;;20.63;18.83;;;;;;;17.28;100.00;98488.13;5080033;28;20229;-71
2021/06/10 06:59:51;;;;;;;21.67;19.73;;;;;;;17.51;100.00;98484.34;5082497;28;20198;-69
2021/06/10 07:02:19;;;;;;;21.43;19.63;;;;;;;17.67;100.00;98499.28;5079886;28;20213;-70
2021/06/10 07:04:46;;;;;;;20.97;19.07;;;;;;;17.82;100.00;98490.28;5079251;28;20283;-69
2021/06/10 07:07:13;;;;;;;21.70;19.60;;;;;;;17.89;100.00;98489.28;5078111;28;20199;-71
2021/06/10 07:09:41;;;;;;;22.47;20.57;;;;;;;17.72;100.00;98491.47;5081534;28;20210;-69
2021/06/10 07:12:11;;;;;;;21.30;19.60;;;;;;;18.31;100.00;98473.16;5081894;28;20198;-70
2021/06/10 07:14:38;;;;;;;21.90;20.03;;;;;;;18.46;99.42;98483.72;5080536;28;20433;-71
2021/06/10 07:17:06;;;;;;;22.47;20.57;;;;;;;18.36;99.54;98480.59;5081805;28;20233;-73
2021/06/10 07:19:33;;;;;;;18.83;17.43;;;;;;;18.74;97.23;98489.97;5079789;28;20748;-69
2021/06/10 07:22:01;;;;;;;19.00;17.47;;;;;;;18.88;96.19;98485.44;5080579;28;20202;-74
2021/06/10 07:24:42;;;;;;;20.63;18.90;;;;;;;18.94;97.27;98487.28;5080659;28;20206;-69
2021/06/10 07:27:11;;;;;;;22.70;20.90;;;;;;;18.92;97.31;98489.34;5081587;28;20194;-73
2021/06/10 07:29:39;;;;;;;22.57;20.77;;;;;;;19.08;95.80;98491.66;5081223;28;20218;-71
2021/06/10 07:32:07;;;;;;;20.27;18.60;;;;;;;19.31;94.81;98495.78;5079840;28;20199;-72
2021/06/10 07:34:36;;;;;;;21.70;19.87;;;;;;;19.73;88.93;98491.97;5080136;28;20687;-70
2021/06/10 07:37:06;;;;;;;20.80;19.20;;;;;;;19.63;90.75;98505.84;5081681;28;20248;-71
2021/06/10 07:39:34;;;;;;;20.23;18.70;;;;;;;19.63;90.58;98501.31;5084973;28;20202;-70
2021/06/10 07:42:01;;;;;;;19.57;18.03;;;;;;;19.57;91.70;98506.69;5082177;28;20317;-69
2021/06/10 07:44:30;;;;;;;19.83;18.30;;;;;;;19.57;91.70;98507.53;5082104;28;20210;-71
2021/06/10 07:46:58;;;;;;;21.67;19.93;;;;;;;19.53;91.04;98495.56;5083535;28;20218;-71
2021/06/10 07:49:25;;;;;;;22.57;20.77;;;;;;;19.60;89.41;98496.34;5084196;28;20206;-71
2021/06/10 07:51:53;;;;;;;22.97;21.00;;;;;;;19.46;92.54;98494.72;5084036;28;20198;-72
2021/06/10 07:54:20;;;;;;;23.23;21.43;;;;;;;19.11;93.20;98495.78;5082404;28;20198;-72
2021/06/10 07:56:48;;;;;;;23.50;21.40;;;;;;;19.18;93.66;98501.19;5084397;28;20493;-72
2021/06/10 07:59:18;;;;;;;22.33;20.63;;;;;;;19.14;94.08;98492.69;5082111;28;20214;-71
2021/06/10 08:01:47;;;;;;;22.37;20.67;;;;;;;19.39;92.47;98500.13;5081052;28;20202;-73
2021/06/10 08:04:14;;;;;;;21.93;20.03;;;;;;;19.59;92.25;98507.31;5076488;28;20206;-71
2021/06/10 08:06:42;;;;;;;24.03;21.93;;;;;;;19.75;92.02;98496.13;5076385;28;20218;-71
2021/06/10 08:09:10;;;;;;;23.33;21.50;;;;;;;19.80;92.50;98504.38;5079920;28;20218;-73
2021/06/10 08:11:38;;;;;;;21.90;20.20;;;;;;;20.04;89.66;98496.66;5083035;28;20206;-70
2021/06/10 08:14:05;;;;;;;21.67;19.90;;;;;;;19.84;89.47;98498.56;5082491;28;20206;-68
2021/06/10 08:16:33;;;;;;;20.03;18.17;;;;;;;19.98;89.74;98499.38;5083161;28;20678;-73
2021/06/10 08:19:02;;;;;;;20.93;19.23;;;;;;;20.24;87.29;98493.06;5082941;28;20593;-69
2021/06/10 08:21:29;;;;;;;24.97;22.53;;;;;;;20.27;87.20;98492.63;5084106;28;20213;-73
2021/06/10 08:23:57;;;;;;;18.70;17.20;;;;;;;20.37;86.50;98489.47;5077886;28;20238;-72
2021/06/10 08:26:25;;;;;;;18.60;17.17;;;;;;;20.46;87.20;98495.44;5078355;28;20862;-71
2021/06/10 08:28:53;;;;;;;19.00;17.40;;;;;;;20.53;87.01;98490.81;5081343;28;20222;-72
2021/06/10 08:31:20;;;;;;;18.00;16.60;;;;;;;20.56;86.79;98486.84;5081475;28;20202;-72
2021/06/10 08:33:48;;;;;;;17.50;16.13;;;;;;;20.98;82.86;98489.09;5071904;28;20261;-71
2021/06/10 08:36:19;;;;;;;14.43;13.33;;;;;;;21.07;77.69;98491.28;5080566;28;20230;-71
2021/06/10 08:38:46;;;;;;;13.80;12.70;;;;;;;21.01;77.46;98491.34;5082119;28;20457;-71
2021/06/10 08:41:14;;;;;;;10.63;9.93;;;;;;;21.10;75.70;98490.84;5080787;28;20206;-72
2021/06/10 08:43:42;;;;;;;10.43;9.53;;;;;;;21.21;71.98;98485.78;5081411;28;20213;-71
2021/06/10 08:46:11;;;;;;;12.43;11.53;;;;;;;21.53;71.79;98501.88;5083783;28;20226;-71
2021/06/10 08:48:41;;;;;;;12.53;11.53;;;;;;;21.35;73.39;98487.28;5081790;28;20195;-75
2021/06/10 08:51:10;;;;;;;11.30;10.53;;;;;;;21.23;74.17;98478.28;5083711;28;20289;-70
2021/06/10 08:53:38;;;;;;;9.93;9.33;;;;;;;21.46;70.68;98484.94;5083859;28;20563;-71
2021/06/10 08:56:06;;;;;;;10.60;9.73;;;;;;;21.18;70.93;98480.84;5080165;28;20737;-72
2021/06/10 08:58:34;;;;;;;10.40;9.70;;;;;;;21.39;68.35;98482.28;5082647;28;20229;-72
2021/06/10 09:01:02;;;;;;;9.57;8.90;;;;;;;21.39;68.18;98485.00;5081014;28;20202;-70
2021/06/10 09:03:32;;;;;;;9.10;8.57;;;;;;;21.50;68.63;98486.94;5079946;28;20727;-72
2021/06/10 09:06:05;;;;;;;9.67;9.07;;;;;;;21.51;68.29;98483.19;5077962;28;20226;-71
2021/06/10 09:08:33;;;;;;;10.20;9.50;;;;;;;21.83;65.14;98484.97;5080754;28;20580;-73
2021/06/10 09:11:07;;;;;;;8.97;8.37;;;;;;;21.88;66.52;98481.59;5081547;28;20202;-71
2021/06/10 09:13:40;;;;;;;8.07;7.57;;;;;;;21.96;64.87;98484.81;5080650;28;20209;-70
2021/06/10 09:16:27;;;;;;;11.43;10.40;;;;;;;22.13;65.83;98484.19;5082638;28;20230;-73
2021/06/10 09:19:01;;;;;;;9.57;8.97;;;;;;;22.19;64.37;98480.59;5076665;28;20905;-72
2021/06/10 09:21:40;;;;;;;8.30;7.70;;;;;;;22.11;63.33;98476.31;5080730;28;20217;-71
2021/06/10 09:24:25;;;;;;;8.37;7.87;;;;;;;22.18;63.30;98481.66;5078815;28;20909;-71
2021/06/10 09:26:59;;;;;;;9.50;8.90;;;;;;;22.40;65.59;98478.44;5078039;28;20287;-71
2021/06/10 09:29:38;;;;;;;9.03;8.43;;;;;;;22.67;61.81;98469.97;5084067;28;20208;-72
2021/06/10 09:32:10;;;;;;;9.23;8.53;;;;;;;22.54;63.79;98479.94;5079069;28;20458;-71
2021/06/10 09:34:49;;;;;;;9.00;8.40;;;;;;;22.67;62.06;98473.47;5077360;28;20198;-72
2021/06/10 09:37:25;;;;;;;8.00;7.50;;;;;;;22.63;58.43;98466.09;5076387;28;20316;-72
2021/06/10 09:39:54;;;;;;;8.13;7.43;;;;;;;22.64;62.52;98470.44;5073662;28;20207;-72
2021/06/10 09:42:28;;;;;;;8.20;7.70;;;;;;;23.05;58.92;98471.44;5080517;28;20738;-70
2021/06/10 09:44:58;;;;;;;7.70;7.10;;;;;;;23.24;55.92;98472.19;5080983;28;20220;-70
2021/06/10 09:47:30;;;;;;;6.97;6.57;;;;;;;23.32;56.72;98470.19;5080014;28;20655;-73
2021/06/10 09:50:00;;;;;;;7.03;6.53;;;;;;;23.31;54.24;98463.13;5080100;28;20194;-72
2021/06/10 09:52:27;;;;;;;7.60;7.10;;;;;;;22.77;55.44;98469.41;5081170;28;20210;-71
2021/06/10 09:54:56;;;;;;;6.97;6.57;;;;;;;22.82;54.95;98466.84;5079554;28;20758;-71
2021/06/10 09:57:23;;;;;;;9.80;6.57;;;;;;;22.98;54.15;98463.44;5079306;28;20233;-71
2021/06/10 09:59:54;;;;;;;6.67;6.27;;;;;;;23.07;52.92;98463.09;5078208;28;20210;-72
2021/06/10 10:02:24;;;;;;;5.87;5.57;;;;;;;23.26;51.64;98467.38;5080797;28;20205;-68
2021/06/10 10:05:04;;;;;;;7.00;6.60;;;;;;;23.25;54.43;98456.78;5073291;28;20737;-70
2021/06/10 10:07:33;;;;;;;6.87;6.40;;;;;;;23.39;54.50;98455.50;5079276;28;20202;-74
2021/06/10 10:10:02;;;;;;;6.60;6.17;;;;;;;23.68;51.79;98458.28;5081439;28;20214;-70
2021/06/10 10:12:31;;;;;;;6.97;6.47;;;;;;;23.62;53.67;98455.69;5082615;28;20293;-74
2021/06/10 10:15:00;;;;;;;6.97;6.50;;;;;;;23.89;53.81;98450.56;5079155;28;20402;-71
2021/06/10 10:17:28;;;;;;;5.63;5.33;;;;;;;23.91;52.73;98445.72;5081739;28;20313;-71
2021/06/10 10:19:56;;;;;;;5.87;5.57;;;;;;;23.91;51.01;98443.03;5082207;28;20206;-73
2021/06/10 10:22:23;;;;;;;6.80;6.40;;;;;;;23.87;51.47;98435.66;5083243;28;20751;-72
2021/06/10 10:24:53;;;;;;;7.00;6.60;;;;;;;23.59;53.76;98440.75;5081623;28;20207;-71
2021/06/10 10:27:22;;;;;;;7.50;6.90;;;;;;;23.70;50.90;98431.81;5081484;28;20338;-72
2021/06/10 10:29:49;;;;;;;7.13;6.73;;;;;;;23.72;51.05;98419.91;5081881;28;20532;-71
2021/06/10 10:32:23;;;;;;;5.83;5.53;;;;;;;23.73;50.22;98421.56;5082205;28;20240;-72
2021/06/10 10:34:51;;;;;;;5.87;5.50;;;;;;;23.80;49.01;98420.34;5081743;28;20202;-71
2021/06/10 10:37:21;;;;;;;5.53;5.23;;;;;;;23.96;47.00;98412.53;5080159;28;20229;-69
2021/06/10 10:39:52;;;;;;;5.63;5.23;;;;;;;24.36;44.99;98422.50;5080135;28;20708;-69
2021/06/10 10:42:31;;;;;;;6.13;5.80;;;;;;;23.89;46.86;98420.78;5080289;28;20217;-72
2021/06/10 10:45:14;;;;;;;6.23;5.83;;;;;;;24.39;46.90;98413.91;5076719;28;20255;-72
2021/06/10 10:47:56;;;;;;;7.53;6.93;;;;;;;24.79;46.62;98404.00;5078888;28;20206;-72
2021/06/10 10:50:35;;;;;;;6.27;5.87;;;;;;;25.98;43.59;98408.31;5080458;28;20225;-75
2021/06/10 10:53:04;;;;;;;6.13;5.73;;;;;;;26.53;43.47;98399.34;5080483;28;20225;-69
2021/06/10 10:55:32;;;;;;;6.37;6.03;;;;;;;26.87;43.09;98394.47;5079132;28;20226;-72
2021/06/10 10:58:07;;;;;;;6.10;5.80;;;;;;;27.68;41.22;98388.94;5081521;28;20413;-70
2021/06/10 11:00:50;;;;;;;7.67;6.97;;;;;;;27.88;40.94;98390.09;5079769;28;20206;-70
2021/06/10 11:03:24;;;;;;;6.90;6.50;;;;;;;27.10;41.83;98399.78;5076932;28;20202;-70
2021/06/10 11:05:52;;;;;;;6.60;6.27;;;;;;;27.58;40.82;98388.91;5079417;28;20218;-72
2021/06/10 11:08:20;;;;;;;6.70;6.20;;;;;;;27.88;38.56;98390.88;5081666;28;20263;-72
2021/06/10 11:11:02;;;;;;;6.73;6.33;;;;;;;27.33;41.86;98386.84;5080510;28;20456;-70
2021/06/10 11:13:31;;;;;;;6.40;5.90;;;;;;;27.17;41.19;98397.63;5084716;28;20206;-72
2021/06/10 11:16:03;;;;;;;6.07;5.77;;;;;;;26.81;41.99;98398.22;5084989;28;20218;-74
2021/06/10 11:18:43;;;;;;;6.63;6.23;;;;;;;26.28;43.32;98407.00;5084857;28;20242;-69
2021/06/10 11:21:12;;;;;;;7.07;6.37;;;;;;;26.47;42.03;98400.38;5086347;28;20206;-71
2021/06/10 11:23:39;;;;;;;6.80;6.20;;;;;;;26.48;44.47;98404.72;5084606;28;20205;-71